Terminal Aerodrome Forecast
Issued by NWS

Home | Current Version | Previous Version | Graphics & Text | Print | Product List | Glossary On
Versions: 1 2 3 4 5 6 7 8 9 10 11 12 13 14 15 16 17
000
FTUS43 KGRB 220500
TAFAUW
TAF
KAUW 220520Z 2206/2306 29003KT P6SM BKN025 OVC080
     FM220900 30004KT P6SM OVC018
     FM221500 28005KT P6SM BKN020
     FM221800 26007KT P6SM SCT025
     FM222200 23008KT P6SM SCT025 SCT250
     FM230300 22010KT P6SM FEW025 SCT100 BKN250=

USA.gov is the U.S. government's official web portal to all federal, state and local government web resources and services.